Time;durP1;ratioP1;P1;durP2;ratioP2;P2;SDS_P1;SDS_P2;PMS_P1;PMS_P2;Temp;Humidity;BMP_temperature;BMP_pressure;BME280_temperature;BME280_humidity;BME280_pressure;Samples;Min_cycle;Max_cycle;Signal;HPM_P1;HPM_P2
2022/01/04 00:02:22;;;;;;;14.40;4.22;;;;;;;9.01;96.15;99897.19;10358801;28;20050;-64
2022/01/04 00:07:44;;;;;;;16.40;5.18;;;;;;;8.93;97.92;99896.88;10359257;28;20045;-64
2022/01/04 00:13:24;;;;;;;19.63;5.00;;;;;;;8.95;97.36;99902.00;10386630;28;20046;-64
2022/01/04 00:18:46;;;;;;;15.13;4.22;;;;;;;9.00;97.31;99882.53;10407524;28;20060;-64
2022/01/04 00:24:08;;;;;;;14.73;4.60;;;;;;;8.84;97.17;99881.97;10358509;28;20049;-64
2022/01/04 00:29:29;;;;;;;19.13;4.85;;;;;;;8.91;96.85;99864.16;10373008;28;20086;-64
2022/01/04 00:34:52;;;;;;;15.05;4.93;;;;;;;8.84;97.53;99849.94;10413961;28;20053;-64
2022/01/04 00:40:14;;;;;;;16.63;5.10;;;;;;;8.74;97.58;99865.38;10386934;28;20502;-64
2022/01/04 00:45:37;;;;;;;16.40;5.28;;;;;;;8.66;97.54;99841.72;10388258;28;20061;-64
2022/01/04 00:51:02;;;;;;;18.65;5.20;;;;;;;8.71;98.33;99844.00;10371715;28;20050;-64
2022/01/04 00:56:24;;;;;;;18.65;6.05;;;;;;;8.68;98.64;99824.28;10357850;28;20062;-64
2022/01/04 01:01:45;;;;;;;16.55;5.55;;;;;;;8.67;98.73;99814.81;10357745;28;20061;-64
2022/01/04 01:07:08;;;;;;;18.98;6.07;;;;;;;8.69;98.51;99812.09;10357227;28;20042;-64
2022/01/04 01:12:29;;;;;;;21.55;6.03;;;;;;;8.68;98.75;99811.28;10380337;28;20508;-64
2022/01/04 01:17:51;;;;;;;13.32;5.88;;;;;;;8.63;99.31;99800.38;10408000;28;20057;-64
2022/01/04 01:23:13;;;;;;;20.30;7.38;;;;;;;8.59;100.00;99797.31;10403401;28;20065;-64
2022/01/04 01:28:38;;;;;;;23.92;7.43;;;;;;;8.63;100.00;99774.41;10409608;28;20048;-64
2022/01/04 01:34:00;;;;;;;19.05;7.88;;;;;;;8.63;100.00;99778.78;10375878;28;20104;-64
2022/01/04 01:39:22;;;;;;;18.77;8.32;;;;;;;8.56;100.00;99776.75;10366219;28;20049;-64
2022/01/04 01:44:43;;;;;;;23.27;8.52;;;;;;;8.65;100.00;99756.13;10360824;28;20053;-65
2022/01/04 01:50:05;;;;;;;22.58;8.80;;;;;;;8.60;100.00;99748.66;10407376;28;20083;-64
2022/01/04 01:55:30;;;;;;;22.80;9.00;;;;;;;8.59;100.00;99750.56;10416154;28;20069;-64
2022/01/04 02:00:52;;;;;;;20.38;8.75;;;;;;;8.62;100.00;99736.38;10355916;28;20487;-64
2022/01/04 02:06:14;;;;;;;22.35;9.15;;;;;;;8.53;100.00;99731.03;10365155;28;20063;-64
2022/01/04 02:11:36;;;;;;;23.50;9.38;;;;;;;8.56;100.00;99714.41;10436360;28;20053;-64
2022/01/04 02:16:58;;;;;;;25.60;9.73;;;;;;;8.50;100.00;99707.91;10425772;28;20068;-64
2022/01/04 02:22:20;;;;;;;20.95;9.38;;;;;;;8.47;100.00;99709.88;10412462;28;20053;-63
2022/01/04 02:27:42;;;;;;;20.45;9.02;;;;;;;8.45;100.00;99701.38;10443130;28;20056;-64
2022/01/04 02:33:04;;;;;;;22.38;10.10;;;;;;;8.53;100.00;99693.88;10362767;28;20182;-64
2022/01/04 02:38:26;;;;;;;25.05;10.50;;;;;;;8.54;100.00;99685.13;10421776;28;20052;-64
2022/01/04 02:43:47;;;;;;;35.08;10.52;;;;;;;8.43;100.00;99687.69;10400425;28;20530;-64
2022/01/04 02:49:09;;;;;;;19.30;9.82;;;;;;;8.43;100.00;99682.50;10362615;28;20409;-64
2022/01/04 02:54:31;;;;;;;28.85;11.73;;;;;;;8.43;100.00;99669.53;10362218;28;20065;-64
2022/01/04 02:59:52;;;;;;;24.52;11.30;;;;;;;8.34;100.00;99657.22;10362091;28;20057;-64
2022/01/04 03:05:14;;;;;;;22.30;11.73;;;;;;;8.32;100.00;99649.53;10383303;28;20064;-64
2022/01/04 03:10:35;;;;;;;27.70;12.68;;;;;;;8.29;100.00;99638.56;10443474;28;20052;-64
2022/01/04 03:16:00;;;;;;;28.73;12.27;;;;;;;8.26;100.00;99637.00;10423623;28;20059;-64
2022/01/04 03:21:21;;;;;;;26.90;12.65;;;;;;;8.20;100.00;99626.25;10427004;28;20049;-64
2022/01/04 03:26:44;;;;;;;24.77;13.25;;;;;;;8.15;100.00;99613.59;10442522;28;20052;-63
2022/01/04 03:32:06;;;;;;;30.13;12.75;;;;;;;8.19;100.00;99603.81;10413753;28;20047;-64
2022/01/04 03:37:28;;;;;;;29.10;14.05;;;;;;;8.19;100.00;99601.22;10400583;28;20041;-64
2022/01/04 03:42:49;;;;;;;31.27;14.52;;;;;;;8.24;100.00;99580.97;10363159;28;20057;-64
2022/01/04 03:48:11;;;;;;;26.90;12.95;;;;;;;8.17;100.00;99578.00;10360562;28;20053;-64
2022/01/04 03:53:34;;;;;;;28.35;14.20;;;;;;;8.29;100.00;99566.69;10405517;28;20486;-64
2022/01/04 03:58:55;;;;;;;27.67;13.57;;;;;;;8.26;100.00;99555.72;10412945;28;20053;-64
2022/01/04 04:04:19;;;;;;;32.80;13.43;;;;;;;8.22;100.00;99554.28;10418507;28;20066;-64
2022/01/04 04:09:41;;;;;;;28.23;14.98;;;;;;;8.26;100.00;99540.16;10426157;28;20505;-64
2022/01/04 04:15:07;;;;;;;34.40;14.40;;;;;;;8.26;100.00;99529.75;10421555;28;20049;-64
2022/01/04 04:20:29;;;;;;;33.42;14.40;;;;;;;8.27;100.00;99521.03;10424304;28;20041;-65
2022/01/04 04:25:50;;;;;;;30.58;14.10;;;;;;;8.26;100.00;99509.00;10433494;28;20049;-64
2022/01/04 04:31:12;;;;;;;27.10;14.27;;;;;;;8.23;100.00;99494.47;10376182;28;20052;-63
2022/01/04 04:36:34;;;;;;;20.60;13.32;;;;;;;8.18;100.00;99485.38;10358178;28;20052;-64
2022/01/04 04:41:56;;;;;;;29.50;14.48;;;;;;;8.21;100.00;99474.75;10359278;28;20458;-64
2022/01/04 04:47:20;;;;;;;26.45;13.77;;;;;;;8.16;100.00;99482.06;10358599;28;20498;-63
2022/01/04 04:52:42;;;;;;;31.42;13.85;;;;;;;8.18;100.00;99462.84;10357960;28;20053;-65
2022/01/04 04:58:03;;;;;;;27.75;14.23;;;;;;;8.32;100.00;99454.00;10366795;28;20056;-64
2022/01/04 05:03:25;;;;;;;29.58;13.23;;;;;;;8.29;100.00;99443.88;10426987;28;20045;-63
2022/01/04 05:08:47;;;;;;;30.92;14.65;;;;;;;8.31;100.00;99444.56;10357437;28;20053;-64
2022/01/04 05:14:08;;;;;;;33.50;14.27;;;;;;;8.38;100.00;99430.16;10384993;28;20052;-63
2022/01/04 05:19:30;;;;;;;27.02;14.25;;;;;;;8.39;100.00;99431.81;10436832;28;20076;-63
2022/01/04 05:24:52;;;;;;;28.60;14.93;;;;;;;8.45;100.00;99452.09;10369228;28;20064;-64
2022/01/04 05:30:14;;;;;;;34.55;14.13;;;;;;;8.52;100.00;99442.91;10356395;28;20046;-63
2022/01/04 05:35:35;;;;;;;30.50;13.90;;;;;;;8.55;100.00;99425.28;10356188;28;20050;-63
2022/01/04 05:40:57;;;;;;;27.02;13.90;;;;;;;8.53;100.00;99419.38;10356371;28;20045;-63
2022/01/04 05:46:19;;;;;;;26.63;14.13;;;;;;;8.59;100.00;99408.53;10356017;28;20411;-64
2022/01/04 05:51:42;;;;;;;27.35;14.07;;;;;;;8.53;100.00;99392.63;10355989;28;20491;-63
2022/01/04 05:57:04;;;;;;;31.17;13.77;;;;;;;8.68;100.00;99387.84;10356639;28;20057;-64
2022/01/04 06:02:26;;;;;;;30.05;13.85;;;;;;;8.59;100.00;99378.19;10450037;28;20059;-64
2022/01/04 06:07:48;;;;;;;27.80;14.23;;;;;;;8.63;100.00;99374.41;10397548;28;20053;-64
2022/01/04 06:18:31;;;;;;;28.33;14.50;;;;;;;8.58;100.00;99365.31;10429130;28;20506;-64
2022/01/04 06:23:54;;;;;;;28.30;14.07;;;;;;;8.59;100.00;99355.78;10414000;28;20406;-64
2022/01/04 06:29:18;;;;;;;26.98;13.70;;;;;;;8.57;100.00;99355.06;10390946;28;20060;-64
2022/01/04 06:34:42;;;;;;;27.65;14.20;;;;;;;8.61;100.00;99360.72;10372838;28;20351;-63
2022/01/04 06:40:04;;;;;;;29.83;14.75;;;;;;;8.60;100.00;99348.66;10389816;28;20481;-64
2022/01/04 06:45:25;;;;;;;27.63;15.05;;;;;;;8.58;100.00;99348.94;10369560;28;20060;-64
2022/01/04 06:50:47;;;;;;;31.98;15.55;;;;;;;8.61;100.00;99339.94;10409462;28;20072;-64
2022/01/04 06:56:09;;;;;;;27.60;15.20;;;;;;;8.57;100.00;99350.69;10405874;28;20050;-64
2022/01/04 07:01:31;;;;;;;28.45;15.18;;;;;;;8.48;100.00;99333.25;10407519;28;20045;-63
2022/01/04 07:06:53;;;;;;;30.58;15.73;;;;;;;8.57;100.00;99342.09;10421335;28;20049;-64
2022/01/04 07:12:15;;;;;;;29.95;15.60;;;;;;;8.52;100.00;99331.22;10405433;28;20049;-64
2022/01/04 07:17:41;;;;;;;29.45;15.07;;;;;;;8.51;100.00;99321.78;10370901;28;20061;-64
2022/01/04 07:23:03;;;;;;;29.88;15.80;;;;;;;8.51;100.00;99319.19;10421317;28;20085;-63
2022/01/04 07:28:25;;;;;;;27.60;15.20;;;;;;;8.56;100.00;99320.47;10363522;28;20052;-64
2022/01/04 07:33:47;;;;;;;29.88;15.40;;;;;;;8.56;100.00;99314.47;10361012;28;20053;-64
2022/01/04 07:39:08;;;;;;;30.52;14.80;;;;;;;8.61;100.00;99319.16;10360639;28;20049;-64
2022/01/04 07:44:30;;;;;;;25.95;14.38;;;;;;;8.56;100.00;99309.28;10360713;28;20041;-63
2022/01/04 07:49:52;;;;;;;25.02;14.10;;;;;;;8.57;100.00;99306.53;10361359;28;20078;-64
2022/01/04 07:55:13;;;;;;;27.80;15.27;;;;;;;8.49;100.00;99300.31;10361903;28;20069;-64
2022/01/04 08:00:35;;;;;;;21.65;13.40;;;;;;;8.56;100.00;99306.69;10419856;28;20045;-64
2022/01/04 08:05:57;;;;;;;25.63;12.90;;;;;;;8.51;100.00;99296.66;10405437;28;20065;-64
2022/01/04 08:11:20;;;;;;;23.60;13.77;;;;;;;8.54;100.00;99287.78;10359256;28;20056;-64
2022/01/04 08:16:42;;;;;;;30.80;15.00;;;;;;;8.57;100.00;99284.94;10430836;28;20063;-64
2022/01/04 08:22:04;;;;;;;23.58;12.32;;;;;;;8.55;100.00;99282.47;10416925;28;20049;-63
2022/01/04 08:27:26;;;;;;;27.95;13.32;;;;;;;8.55;100.00;99271.25;10398928;28;20061;-64
2022/01/04 08:32:50;;;;;;;27.55;13.45;;;;;;;8.54;100.00;99270.41;10377780;28;20072;-64
2022/01/04 08:38:12;;;;;;;29.45;13.73;;;;;;;8.63;100.00;99269.69;10358876;28;20069;-63
2022/01/04 08:43:33;;;;;;;29.88;13.55;;;;;;;8.61;100.00;99253.41;10395622;28;20071;-63
2022/01/04 08:48:56;;;;;;;24.70;13.38;;;;;;;8.58;100.00;99248.47;10394153;28;20060;-62
2022/01/04 08:54:18;;;;;;;22.05;13.73;;;;;;;8.64;100.00;99253.97;10357728;28;20128;-63
2022/01/04 08:59:40;;;;;;;24.45;13.90;;;;;;;8.58;100.00;99258.03;10378875;28;20448;-64
2022/01/04 09:05:02;;;;;;;31.55;13.75;;;;;;;8.60;100.00;99249.97;10398316;28;20521;-64
2022/01/04 09:10:24;;;;;;;24.98;13.55;;;;;;;8.67;100.00;99250.28;10397506;28;20054;-64
2022/01/04 09:18:42;;;;;;;26.50;13.50;;;;;;;8.71;100.00;99252.53;10419738;28;20068;-64
2022/01/04 09:21:29;;;;;;;23.48;13.38;;;;;;;8.74;100.00;99247.06;10404633;28;20049;-64
2022/01/04 09:26:50;;;;;;;26.05;13.68;;;;;;;8.76;100.00;99254.75;10369595;28;20050;-63
2022/01/04 09:32:16;;;;;;;27.45;13.95;;;;;;;8.76;100.00;99252.97;10355786;28;20494;-63
2022/01/04 09:37:38;;;;;;;25.33;13.23;;;;;;;8.81;100.00;99258.63;10355995;28;20045;-64
2022/01/04 09:43:06;;;;;;;28.75;13.95;;;;;;;8.73;100.00;99250.63;10356342;28;20065;-64
2022/01/04 09:48:28;;;;;;;25.05;15.25;;;;;;;8.63;100.00;99265.31;10355942;28;20149;-64
2022/01/04 09:53:50;;;;;;;27.45;14.25;;;;;;;8.61;100.00;99262.00;10355864;28;20625;-64
2022/01/04 09:59:11;;;;;;;27.08;13.63;;;;;;;8.53;100.00;99267.97;10387150;28;20060;-64
2022/01/04 10:04:33;;;;;;;21.02;13.45;;;;;;;8.58;100.00;99260.63;10438369;28;20051;-65
2022/01/04 10:09:55;;;;;;;16.73;10.32;;;;;;;8.31;100.00;99312.16;10384758;28;20049;-64
2022/01/04 10:15:55;;;;;;;11.60;2.60;;;;;;;7.64;100.00;99307.97;10412586;28;20059;-64
2022/01/04 10:21:22;;;;;;;;;;;;;;;7.32;100.00;99293.22;10437997;28;20049;-65
2022/01/04 10:26:45;;;;;;;8.60;1.20;;;;;;;7.32;100.00;99281.06;10355469;28;19925;-64
2022/01/04 10:32:11;;;;;;;10.45;1.48;;;;;;;7.26;100.00;99234.91;10373029;28;20058;-64
2022/01/04 10:37:39;;;;;;;6.03;1.30;;;;;;;7.37;100.00;99242.69;10382574;28;20046;-65
2022/01/04 10:43:12;;;;;;;2.38;1.25;;;;;;;7.26;100.00;99240.09;10356601;28;20044;-64
2022/01/04 10:48:39;;;;;;;5.18;1.70;;;;;;;7.45;100.00;99229.13;10366002;28;20054;-65
2022/01/04 10:54:06;;;;;;;10.48;2.72;;;;;;;7.51;100.00;99226.91;10402708;28;20045;-64
2022/01/04 10:59:27;;;;;;;6.60;2.47;;;;;;;7.64;100.00;99227.59;10390574;28;20050;-64
2022/01/04 11:05:13;;;;;;;6.75;2.50;;;;;;;7.62;100.00;99242.44;10362549;28;20054;-64
2022/01/04 11:10:36;;;;;;;5.40;2.37;;;;;;;7.65;100.00;99226.66;10361959;28;20057;-65
2022/01/04 11:16:01;;;;;;;4.97;2.13;;;;;;;7.70;100.00;99234.91;10391124;28;20054;-64
2022/01/04 11:21:25;;;;;;;5.95;2.05;;;;;;;7.74;100.00;99225.91;10391604;28;20523;-64
2022/01/04 11:26:48;;;;;;;7.22;2.25;;;;;;;7.70;100.00;99219.34;10400277;28;20053;-64
2022/01/04 11:32:16;;;;;;;6.65;2.55;;;;;;;7.69;100.00;99213.31;10398798;28;20124;-64
2022/01/04 11:37:41;;;;;;;5.38;2.63;;;;;;;7.77;100.00;99220.50;10361662;28;20213;-65
2022/01/04 11:43:07;;;;;;;7.83;2.67;;;;;;;7.84;100.00;99221.66;10361347;28;20045;-64
2022/01/04 11:48:36;;;;;;;;;;;;;;;7.90;100.00;99208.19;10361297;28;20293;-65
2022/01/04 11:54:19;;;;;;;9.00;2.67;;;;;;;7.87;100.00;99213.63;10361482;28;19933;-65
2022/01/04 11:59:45;;;;;;;6.72;2.92;;;;;;;7.84;100.00;99213.88;10361580;28;20049;-64
2022/01/04 12:05:22;;;;;;;6.13;2.83;;;;;;;7.74;100.00;99221.56;10359712;28;20060;-64
2022/01/04 12:10:47;;;;;;;12.68;2.20;;;;;;;7.60;100.00;99249.50;10360225;28;20053;-64
2022/01/04 12:16:09;;;;;;;9.02;1.40;;;;;;;7.42;100.00;99240.56;10421908;28;20060;-65
2022/01/04 12:21:36;;;;;;;7.95;1.15;;;;;;;7.29;100.00;99250.19;10412414;28;20045;-64
2022/01/04 12:27:10;;;;;;;4.22;0.68;;;;;;;7.22;100.00;99251.63;10413630;28;20695;-64
2022/01/04 12:32:32;;;;;;;7.82;0.93;;;;;;;7.22;100.00;99269.78;10375977;28;20141;-65
2022/01/04 12:37:54;;;;;;;5.65;0.82;;;;;;;7.21;100.00;99270.72;10358972;28;20410;-64
2022/01/04 12:43:16;;;;;;;1.73;0.70;;;;;;;7.07;100.00;99281.28;10359138;28;20045;-65
2022/01/04 12:48:48;;;;;;;0.95;0.40;;;;;;;6.88;100.00;99275.81;10358192;28;20486;-65
2022/01/04 12:54:21;;;;;;;3.03;0.43;;;;;;;6.81;100.00;99274.63;10370482;28;20045;-64
2022/01/04 12:59:54;;;;;;;1.02;0.30;;;;;;;6.94;100.00;99285.72;10405292;28;20053;-64
2022/01/04 13:05:18;;;;;;;1.23;0.50;;;;;;;6.82;100.00;99291.00;10432036;28;20046;-64
2022/01/04 13:10:39;;;;;;;1.95;0.40;;;;;;;6.76;100.00;99294.84;10357931;28;20060;-64
2022/01/04 13:16:22;;;;;;;1.10;0.30;;;;;;;6.52;100.00;99300.19;10400734;28;20528;-64
2022/01/04 13:21:52;;;;;;;1.38;0.60;;;;;;;6.44;100.00;99315.41;10390854;28;20053;-64
2022/01/04 13:27:26;;;;;;;1.00;0.60;;;;;;;6.50;100.00;99322.75;10369987;28;20046;-64
2022/01/04 13:32:52;;;;;;;3.45;0.47;;;;;;;6.41;100.00;99324.25;10369944;28;20049;-64
2022/01/04 13:38:20;;;;;;;;;;;;;;;6.32;100.00;99331.81;10398698;28;20053;-64
2022/01/04 13:43:45;;;;;;;4.95;0.80;;;;;;;6.18;100.00;99339.75;10367890;28;19921;-65
2022/01/04 13:49:07;;;;;;;2.27;0.60;;;;;;;6.03;100.00;99348.56;10394567;28;20050;-64
2022/01/04 13:54:30;;;;;;;3.75;0.60;;;;;;;6.17;100.00;99338.09;10425320;28;20097;-64
2022/01/04 13:59:52;;;;;;;1.10;0.50;;;;;;;6.35;100.00;99344.56;10395057;28;20053;-64
2022/01/04 14:05:17;;;;;;;4.38;0.70;;;;;;;6.38;100.00;99349.53;10406316;28;20570;-65
2022/01/04 14:10:53;;;;;;;4.97;0.70;;;;;;;6.30;100.00;99346.63;10364409;28;20149;-65
2022/01/04 14:16:15;;;;;;;;;;;;;;;6.36;100.00;99331.50;10371368;28;20050;-65
2022/01/04 14:21:40;;;;;;;3.88;0.63;;;;;;;6.12;100.00;99334.97;10361383;28;20036;-67
2022/01/04 14:27:07;;;;;;;5.75;0.70;;;;;;;6.26;100.00;99327.09;10347365;28;20046;-64
2022/01/04 14:32:35;;;;;;;2.88;0.80;;;;;;;6.39;100.00;99325.28;10373386;28;20049;-64
2022/01/04 14:38:00;;;;;;;2.25;0.50;;;;;;;6.38;99.27;99347.75;10389640;28;20061;-66
2022/01/04 14:43:21;;;;;;;3.22;0.90;;;;;;;6.27;100.00;99350.28;10357646;28;20160;-65
2022/01/04 14:48:43;;;;;;;4.93;0.77;;;;;;;6.27;99.42;99357.19;10359942;28;20054;-65
2022/01/04 14:54:05;;;;;;;4.30;0.82;;;;;;;6.17;98.87;99361.38;10359841;28;20050;-65
2022/01/04 14:59:27;;;;;;;4.13;0.82;;;;;;;6.28;98.82;99366.59;10352490;28;20050;-65
2022/01/04 15:04:48;;;;;;;8.18;1.23;;;;;;;6.27;98.91;99370.13;10357267;28;20082;-65
2022/01/04 15:10:10;;;;;;;2.33;0.80;;;;;;;6.33;99.40;99370.53;10355520;28;20053;-64
2022/01/04 15:15:35;;;;;;;22.00;6.72;;;;;;;6.22;99.20;99375.63;10408238;28;20099;-65
2022/01/04 15:20:57;;;;;;;11.10;2.07;;;;;;;6.21;98.36;99375.75;10417600;28;20057;-64
2022/01/04 15:26:19;;;;;;;5.88;1.27;;;;;;;6.17;99.76;99384.66;10411445;28;20053;-65
2022/01/04 15:31:41;;;;;;;9.50;3.40;;;;;;;6.23;98.25;99373.88;10363486;28;20524;-66
2022/01/04 15:37:04;;;;;;;9.75;2.55;;;;;;;6.02;98.82;99383.97;10370684;28;20163;-65
2022/01/04 15:42:27;;;;;;;10.43;3.90;;;;;;;6.17;96.88;99395.00;10362308;28;20046;-65
2022/01/04 15:47:48;;;;;;;10.10;2.65;;;;;;;5.88;98.89;99403.94;10364597;28;20144;-65
2022/01/04 15:53:10;;;;;;;7.25;2.20;;;;;;;6.01;98.72;99420.25;10395849;28;20136;-65
2022/01/04 15:58:31;;;;;;;9.50;2.47;;;;;;;5.85;98.77;99414.47;10409005;28;20088;-65
2022/01/04 16:03:53;;;;;;;11.40;1.83;;;;;;;5.93;97.55;99413.03;10394229;28;20395;-65
2022/01/04 16:09:16;;;;;;;7.72;2.20;;;;;;;5.83;98.40;99431.84;10389239;28;20144;-65
2022/01/04 16:14:39;;;;;;;12.82;2.42;;;;;;;5.81;99.98;99438.91;10425725;28;20071;-65
2022/01/04 16:25:45;;;;;;;7.47;1.77;;;;;;;5.43;99.00;99461.25;10397946;28;20042;-65
2022/01/04 16:31:08;;;;;;;5.55;1.30;;;;;;;5.57;98.29;99458.59;10374948;28;20494;-65
2022/01/04 16:36:33;;;;;;;9.93;1.58;;;;;;;5.41;97.91;99460.50;10394829;28;20053;-65
2022/01/04 16:41:56;;;;;;;6.25;1.65;;;;;;;5.36;98.83;99462.59;10382365;28;20180;-65
2022/01/04 16:47:20;;;;;;;6.05;1.60;;;;;;;5.42;96.93;99482.03;10362151;28;20053;-64
2022/01/04 16:52:42;;;;;;;7.18;1.52;;;;;;;5.36;98.20;99478.09;10363447;28;20045;-65
2022/01/04 16:58:04;;;;;;;9.43;1.50;;;;;;;5.35;97.60;99471.28;10399134;28;20063;-65
2022/01/04 17:03:25;;;;;;;10.07;1.75;;;;;;;5.33;95.71;99477.44;10386028;28;20057;-63
2022/01/04 17:08:51;;;;;;;8.18;1.55;;;;;;;5.28;95.07;99475.16;10365201;28;20081;-65
2022/01/04 17:19:54;;;;;;;7.78;1.60;;;;;;;5.31;94.32;99480.13;10396467;28;20064;-66
2022/01/04 17:25:16;;;;;;;7.60;1.63;;;;;;;5.14;96.92;99482.97;10393043;28;20083;-65
2022/01/04 17:30:37;;;;;;;13.13;1.80;;;;;;;5.17;96.53;99487.09;10352141;28;20049;-65
2022/01/04 17:35:59;;;;;;;7.63;1.80;;;;;;;5.12;94.80;99482.25;10351284;28;20480;-65
2022/01/04 17:41:21;;;;;;;9.52;1.88;;;;;;;5.04;96.43;99481.91;10351275;28;20057;-66
2022/01/04 17:46:43;;;;;;;9.32;1.88;;;;;;;4.93;96.65;99489.50;10364877;28;20061;-65
2022/01/04 17:52:04;;;;;;;12.18;2.17;;;;;;;4.88;97.43;99476.06;10385493;28;20041;-65
2022/01/04 17:57:26;;;;;;;7.60;2.40;;;;;;;5.00;97.20;99490.78;10336931;28;20056;-65
2022/01/04 18:02:48;;;;;;;7.80;2.20;;;;;;;4.95;96.96;99487.63;10351011;28;20050;-65
2022/01/04 18:08:10;;;;;;;12.85;2.25;;;;;;;4.91;96.69;99486.19;10350459;28;20084;-65
2022/01/04 18:13:31;;;;;;;11.57;2.03;;;;;;;4.93;96.79;99486.09;10375184;28;20052;-65
2022/01/04 18:18:53;;;;;;;7.88;2.00;;;;;;;4.84;96.75;99495.22;10398724;28;20060;-65
2022/01/04 18:24:20;;;;;;;11.50;2.25;;;;;;;4.79;97.23;99497.28;10391486;28;20616;-65
2022/01/04 18:29:41;;;;;;;6.07;1.70;;;;;;;4.98;98.61;99505.53;10370051;28;20544;-65
2022/01/04 18:35:04;;;;;;;8.38;1.90;;;;;;;4.86;97.25;99506.28;10349914;28;20486;-65
2022/01/04 18:40:25;;;;;;;6.68;1.98;;;;;;;4.73;98.13;99502.81;10380838;28;20069;-65
2022/01/04 18:45:47;;;;;;;11.20;2.08;;;;;;;4.72;99.73;99499.50;10356136;28;20506;-65
2022/01/04 18:51:09;;;;;;;15.48;2.50;;;;;;;4.67;97.64;99507.53;10360311;28;20049;-65
2022/01/04 18:56:31;;;;;;;11.13;1.95;;;;;;;4.58;99.22;99508.13;10363569;28;20041;-65
2022/01/04 19:01:53;;;;;;;9.13;2.15;;;;;;;4.57;97.67;99495.28;10370425;28;20091;-65
2022/01/04 19:07:18;;;;;;;9.02;1.90;;;;;;;4.55;98.81;99502.28;10406161;28;20489;-65
2022/01/04 19:12:40;;;;;;;14.75;2.83;;;;;;;4.61;99.23;99499.34;10360114;28;20046;-65
2022/01/04 19:18:01;;;;;;;12.90;2.20;;;;;;;4.57;99.38;99500.44;10360838;28;20080;-65
2022/01/04 19:23:24;;;;;;;11.45;2.10;;;;;;;4.49;97.95;99489.78;10364098;28;20053;-65
2022/01/04 19:28:45;;;;;;;7.82;1.90;;;;;;;4.41;99.40;99489.41;10361024;28;20073;-65
2022/01/04 19:39:32;;;;;;;7.45;2.10;;;;;;;4.53;99.92;99491.25;10362400;28;20581;-65
2022/01/04 19:44:54;;;;;;;10.38;2.15;;;;;;;4.50;99.17;99497.41;10361273;28;20185;-65
2022/01/04 19:50:16;;;;;;;6.22;1.88;;;;;;;4.49;98.63;99505.28;10369691;28;20060;-65
2022/01/04 19:55:38;;;;;;;9.82;2.10;;;;;;;4.56;97.60;99507.38;10386984;28;20050;-65
2022/01/04 20:00:59;;;;;;;9.85;1.95;;;;;;;4.58;98.73;99507.28;10373626;28;20050;-65
2022/01/04 20:06:22;;;;;;;8.63;1.67;;;;;;;4.49;97.76;99507.84;10359207;28;20044;-65
2022/01/04 20:11:44;;;;;;;13.13;2.40;;;;;;;4.44;98.06;99515.03;10359570;28;20045;-65
2022/01/04 20:17:06;;;;;;;13.30;1.80;;;;;;;4.33;98.40;99517.44;10432523;28;20056;-65
2022/01/04 20:22:28;;;;;;;8.77;1.67;;;;;;;4.53;98.57;99509.28;10401549;28;20521;-65
2022/01/04 20:27:50;;;;;;;13.95;2.28;;;;;;;4.40;97.89;99508.38;10398536;28;20057;-65
2022/01/04 20:33:12;;;;;;;9.05;1.52;;;;;;;4.45;96.97;99514.09;10397413;28;20413;-65
2022/01/04 20:38:38;;;;;;;5.70;1.52;;;;;;;4.29;97.51;99505.63;10359423;28;20050;-64
2022/01/04 20:44:00;;;;;;;10.20;1.70;;;;;;;4.29;97.68;99501.31;10358985;28;20061;-65
2022/01/04 20:49:21;;;;;;;11.55;1.83;;;;;;;4.30;97.62;99525.34;10358583;28;20064;-65
2022/01/04 20:54:43;;;;;;;7.82;1.77;;;;;;;4.34;96.16;99519.91;10366071;28;20054;-66
2022/01/04 21:00:07;;;;;;;11.55;1.95;;;;;;;4.33;97.00;99523.41;10384785;28;20053;-65
2022/01/04 21:05:31;;;;;;;11.18;2.03;;;;;;;4.32;97.25;99526.09;10357317;28;20057;-65
2022/01/04 21:10:52;;;;;;;6.25;1.88;;;;;;;4.26;96.50;99526.44;10356894;28;20133;-65
2022/01/04 21:16:15;;;;;;;9.82;1.65;;;;;;;4.27;96.09;99523.78;10411531;28;20038;-65
2022/01/04 21:21:38;;;;;;;12.30;2.70;;;;;;;4.23;94.81;99521.47;10389515;28;20134;-65
2022/01/04 21:27:00;;;;;;;15.65;2.58;;;;;;;4.21;95.40;99523.34;10370778;28;20056;-65
2022/01/04 21:32:22;;;;;;;14.98;2.25;;;;;;;4.22;95.28;99530.97;10356919;28;20058;-65
2022/01/04 21:37:44;;;;;;;6.50;2.70;;;;;;;4.20;95.82;99532.81;10356587;28;20054;-64
2022/01/04 21:43:06;;;;;;;7.20;1.73;;;;;;;4.25;96.51;99523.06;10356608;28;20050;-65
2022/01/04 21:48:28;;;;;;;9.02;1.98;;;;;;;4.23;97.36;99521.47;10356370;28;20068;-65
2022/01/04 21:53:50;;;;;;;7.38;1.40;;;;;;;4.04;95.61;99531.22;10356262;28;20045;-65
2022/01/04 21:59:12;;;;;;;12.02;1.90;;;;;;;3.93;96.95;99531.84;10384421;28;20072;-64
2022/01/04 22:04:33;;;;;;;10.55;2.20;;;;;;;4.09;97.66;99529.19;10358668;28;20048;-65
2022/01/04 22:09:55;;;;;;;8.10;1.67;;;;;;;4.00;97.23;99534.91;10356050;28;20046;-65
2022/01/04 22:15:17;;;;;;;6.43;1.88;;;;;;;4.06;96.91;99534.56;10403007;28;20637;-65
2022/01/04 22:20:39;;;;;;;9.07;1.60;;;;;;;4.05;96.45;99545.78;10392296;28;20077;-65
2022/01/04 22:26:01;;;;;;;9.32;1.77;;;;;;;3.98;96.68;99542.72;10379525;28;20387;-65
2022/01/04 22:31:23;;;;;;;13.57;2.15;;;;;;;4.03;96.43;99539.88;10356393;28;20394;-65
2022/01/04 22:36:45;;;;;;;13.10;2.20;;;;;;;4.02;95.75;99548.53;10368176;28;20053;-65
2022/01/04 22:42:07;;;;;;;9.20;2.17;;;;;;;4.00;95.71;99568.41;10360300;28;20060;-64
2022/01/04 22:47:28;;;;;;;10.82;2.10;;;;;;;4.06;95.09;99565.50;10363788;28;20071;-65
2022/01/04 22:52:50;;;;;;;9.88;2.17;;;;;;;3.87;95.74;99572.63;10368382;28;20054;-65
2022/01/04 22:58:12;;;;;;;11.63;1.83;;;;;;;3.94;97.06;99566.19;10399781;28;20570;-65
2022/01/04 23:03:40;;;;;;;20.35;5.28;;;;;;;3.94;94.97;99584.22;10444970;28;20077;-65
2022/01/04 23:09:02;;;;;;;6.88;2.13;;;;;;;3.90;96.73;99577.59;10393436;28;20046;-65
2022/01/04 23:14:24;;;;;;;7.22;1.48;;;;;;;3.85;96.24;99574.44;10390721;28;20041;-65
2022/01/04 23:19:46;;;;;;;10.20;1.90;;;;;;;3.90;95.17;99569.88;10378314;28;20064;-64
2022/01/04 23:25:08;;;;;;;11.50;2.20;;;;;;;3.84;95.44;99562.47;10381295;28;20057;-65
2022/01/04 23:30:30;;;;;;;9.75;1.55;;;;;;;3.74;94.75;99569.09;10361117;28;20060;-63
2022/01/04 23:35:52;;;;;;;8.82;2.10;;;;;;;3.82;94.46;99564.31;10361061;28;20042;-65
2022/01/04 23:41:13;;;;;;;13.63;2.05;;;;;;;3.62;94.93;99559.47;10361995;28;20054;-65
2022/01/04 23:46:35;;;;;;;9.45;1.88;;;;;;;3.65;95.08;99548.97;10362125;28;20050;-65
2022/01/04 23:51:57;;;;;;;11.55;1.85;;;;;;;3.60;94.71;99545.84;10376065;28;20053;-65
2022/01/04 23:57:19;;;;;;;10.00;1.65;;;;;;;3.71;94.79;99551.22;10375643;28;20386;-64
